Time;durP1;ratioP1;P1;durP2;ratioP2;P2;SDS_P1;SDS_P2;PMS_P1;PMS_P2;Temp;Humidity;BMP_temperature;BMP_pressure;BME280_temperature;BME280_humidity;BME280_pressure;Samples;Min_cycle;Max_cycle;Signal;HPM_P1;HPM_P2
2022/01/04 00:01:21;;;;;;;2.83;1.23;;;;;;;9.61;75.30;95749.38;4936407;29;20067;-77
2022/01/04 00:03:49;;;;;;;1.67;1.23;;;;;;;9.63;75.45;95755.19;4936821;29;20488;-77
2022/01/04 00:06:17;;;;;;;2.95;1.23;;;;;;;9.65;75.25;95745.38;4936575;29;20060;-77
2022/01/04 00:08:44;;;;;;;1.40;1.10;;;;;;;9.64;74.10;95741.97;4936460;29;20071;-77
2022/01/04 00:11:17;;;;;;;3.00;1.38;;;;;;;9.66;74.82;95736.56;4936448;29;20146;-77
2022/01/04 00:13:45;;;;;;;2.75;1.38;;;;;;;9.67;74.74;95738.19;4936835;29;20056;-76
2022/01/04 00:16:14;;;;;;;3.13;1.50;;;;;;;9.69;73.61;95731.78;4936413;29;20062;-77
2022/01/04 00:18:46;;;;;;;2.88;1.83;;;;;;;9.72;74.88;95727.97;4936027;29;20063;-77
2022/01/04 00:21:13;;;;;;;1.75;1.30;;;;;;;9.71;73.72;95721.16;4935658;29;20052;-77
2022/01/04 00:23:42;;;;;;;1.95;1.05;;;;;;;9.74;75.11;95706.94;4936205;29;20059;-77
2022/01/04 00:26:10;;;;;;;2.25;0.75;;;;;;;9.78;75.15;95715.97;4936052;29;20560;-77
2022/01/04 00:28:38;;;;;;;1.10;0.60;;;;;;;9.82;75.58;95698.94;4936227;29;20055;-78
2022/01/04 00:31:05;;;;;;;1.33;0.50;;;;;;;9.87;75.59;95697.34;4935545;29;20055;-78
2022/01/04 00:33:34;;;;;;;1.02;0.40;;;;;;;9.95;76.09;95692.91;4936181;29;20064;-78
2022/01/04 00:36:01;;;;;;;1.02;0.65;;;;;;;10.00;76.03;95693.94;4936095;29;20074;-77
2022/01/04 00:38:29;;;;;;;1.27;0.40;;;;;;;10.06;75.97;95714.00;4935775;29;20060;-78
2022/01/04 00:40:56;;;;;;;0.85;0.40;;;;;;;10.11;75.53;95679.50;4936129;29;20071;-77
2022/01/04 00:43:24;;;;;;;1.67;0.50;;;;;;;10.16;75.61;95679.69;4935958;29;20047;-77
2022/01/04 00:45:52;;;;;;;0.40;0.30;;;;;;;10.19;75.17;95676.69;4935857;29;20564;-77
2022/01/04 00:51:09;;;;;;;0.55;0.47;;;;;;;10.24;75.03;95666.47;4936316;29;20058;-77
2022/01/04 00:53:36;;;;;;;1.42;0.43;;;;;;;10.28;75.32;95672.88;4936066;29;20616;-77
2022/01/04 00:56:04;;;;;;;0.70;0.32;;;;;;;10.33;75.29;95674.13;4935654;29;20059;-78
2022/01/04 00:58:32;;;;;;;0.90;0.73;;;;;;;10.36;75.13;95668.47;4935633;29;20051;-77
2022/01/04 01:01:00;;;;;;;0.55;0.52;;;;;;;10.38;75.27;95667.25;4935842;29;20051;-77
2022/01/04 01:03:28;;;;;;;0.60;0.40;;;;;;;10.41;75.92;95658.25;4935504;29;20047;-77
2022/01/04 01:05:56;;;;;;;0.40;0.40;;;;;;;10.42;75.41;95652.03;4935502;29;20058;-77
2022/01/04 01:08:25;;;;;;;1.80;0.60;;;;;;;10.43;76.20;95644.00;4935818;29;20058;-77
2022/01/04 01:10:52;;;;;;;0.85;0.43;;;;;;;10.44;75.05;95631.78;4935766;29;20059;-77
2022/01/04 01:13:20;;;;;;;0.43;0.43;;;;;;;10.48;75.80;95632.97;4935681;29;20141;-77
2022/01/04 01:15:47;;;;;;;1.90;0.55;;;;;;;10.49;75.69;95637.16;4935235;29;20063;-78
2022/01/04 01:18:17;;;;;;;1.45;0.73;;;;;;;10.53;76.54;95630.53;4936085;29;20052;-77
2022/01/04 01:20:46;;;;;;;1.00;0.50;;;;;;;10.56;76.23;95626.72;4938154;29;20062;-77
2022/01/04 01:23:14;;;;;;;0.80;0.63;;;;;;;10.58;75.94;95624.72;4944946;29;20051;-77
2022/01/04 01:25:43;;;;;;;0.45;0.40;;;;;;;10.59;75.38;95621.91;4944806;29;20529;-77
2022/01/04 01:28:11;;;;;;;2.10;0.77;;;;;;;10.62;75.08;95628.50;4943866;29;20063;-77
2022/01/04 01:30:41;;;;;;;0.90;0.73;;;;;;;10.60;75.19;95620.88;4945002;29;20066;-77
2022/01/04 01:33:08;;;;;;;0.30;0.20;;;;;;;10.60;75.27;95609.66;4937635;29;20123;-77
2022/01/04 01:35:37;;;;;;;0.70;0.40;;;;;;;10.60;75.86;95607.06;4934504;29;20066;-77
2022/01/04 01:38:05;;;;;;;0.75;0.50;;;;;;;10.61;75.47;95609.47;4935434;29;20051;-77
2022/01/04 01:40:33;;;;;;;1.42;0.80;;;;;;;10.63;75.43;95601.44;4935452;29;20064;-78
2022/01/04 01:43:03;;;;;;;1.10;0.50;;;;;;;10.64;75.89;95597.81;4937046;29;20047;-77
2022/01/04 01:45:31;;;;;;;0.80;0.70;;;;;;;10.64;76.12;95590.78;4937440;29;20051;-77
2022/01/04 01:47:59;;;;;;;1.17;0.68;;;;;;;10.64;75.73;95580.34;4937159;29;20502;-77
2022/01/04 01:50:27;;;;;;;0.88;0.70;;;;;;;10.64;75.77;95575.13;4973856;23;20063;-82
2022/01/04 01:52:57;;;;;;;1.10;0.70;;;;;;;10.66;76.38;95582.75;4964772;28;20505;-78
2022/01/04 01:55:25;;;;;;;1.70;0.80;;;;;;;10.68;76.31;95565.88;4965598;28;20058;-78
2022/01/04 01:57:53;;;;;;;1.65;1.05;;;;;;;10.68;76.20;95559.88;4964561;28;20521;-78
2022/01/04 02:00:26;;;;;;;1.60;0.70;;;;;;;10.70;76.38;95555.25;4951200;29;20063;-78
2022/01/04 02:02:53;;;;;;;1.42;1.08;;;;;;;10.68;76.34;95539.81;4943062;29;20513;-78
2022/01/04 02:05:22;;;;;;;1.50;0.85;;;;;;;10.69;76.29;95541.44;4943084;29;20055;-77
2022/01/04 02:07:50;;;;;;;1.00;0.80;;;;;;;10.69;75.89;95533.59;4944631;29;20052;-78
2022/01/04 02:10:17;;;;;;;1.33;0.90;;;;;;;10.71;76.16;95523.75;4944328;29;20051;-78
2022/01/04 02:12:47;;;;;;;1.23;0.90;;;;;;;10.72;75.00;95514.91;4944283;29;20090;-78
2022/01/04 02:15:17;;;;;;;2.85;1.25;;;;;;;10.73;75.73;95507.88;4942792;29;20047;-78
2022/01/04 02:17:47;;;;;;;1.00;0.90;;;;;;;10.75;76.09;95505.06;4944040;29;20052;-79
2022/01/04 02:20:17;;;;;;;1.50;1.13;;;;;;;10.76;75.50;95501.44;4943471;29;20075;-78
2022/01/04 02:22:45;;;;;;;1.05;0.90;;;;;;;10.77;75.67;95503.06;4942170;29;20134;-78
2022/01/04 02:25:13;;;;;;;1.13;0.80;;;;;;;10.77;75.65;95497.84;4942855;29;20060;-78
2022/01/04 02:27:42;;;;;;;1.98;1.33;;;;;;;10.76;75.86;95501.44;4942875;29;20056;-80
2022/01/04 02:30:14;;;;;;;4.15;2.45;;;;;;;10.76;75.93;95496.22;4944097;29;20426;-78
2022/01/04 02:32:41;;;;;;;1.38;1.20;;;;;;;10.77;74.93;95492.63;4943819;29;20063;-76
2022/01/04 02:35:09;;;;;;;2.88;1.65;;;;;;;10.76;75.46;95484.00;4944204;29;20051;-77
2022/01/04 02:37:38;;;;;;;2.00;1.40;;;;;;;10.78;74.74;95483.78;4943307;29;20477;-79
2022/01/04 02:40:07;;;;;;;2.20;1.38;;;;;;;10.80;75.44;95471.31;4943253;29;20502;-80
2022/01/04 02:42:34;;;;;;;2.05;1.38;;;;;;;10.79;75.25;95470.53;4944974;29;20062;-80
2022/01/04 02:45:02;;;;;;;1.20;1.10;;;;;;;10.79;74.39;95457.50;4944165;29;20437;-78
2022/01/04 02:47:33;;;;;;;1.67;1.17;;;;;;;10.80;74.93;95448.66;4944511;29;20098;-78
2022/01/04 02:50:00;;;;;;;1.77;1.23;;;;;;;10.79;75.34;95448.88;4944629;29;20051;-79
2022/01/04 02:52:28;;;;;;;2.40;1.02;;;;;;;10.79;74.39;95441.84;4945189;29;20054;-79
2022/01/04 02:54:57;;;;;;;2.58;1.30;;;;;;;10.80;74.97;95430.41;4946285;29;20055;-78
2022/01/04 02:57:24;;;;;;;2.25;1.08;;;;;;;10.81;75.21;95411.13;4943910;29;20524;-81
2022/01/04 02:59:52;;;;;;;1.58;1.15;;;;;;;10.82;75.61;95401.47;4944670;29;20148;-78
2022/01/04 03:02:19;;;;;;;2.28;1.33;;;;;;;10.83;75.67;95408.31;4944613;29;20048;-79
2022/01/04 03:04:48;;;;;;;1.27;1.17;;;;;;;10.83;75.73;95409.09;4944111;29;20051;-78
2022/01/04 03:07:15;;;;;;;5.75;1.75;;;;;;;10.83;74.46;95392.66;4943774;29;20044;-78
2022/01/04 03:09:43;;;;;;;1.27;1.17;;;;;;;10.84;74.02;95391.63;4944897;29;20052;-79
2022/01/04 03:12:12;;;;;;;0.90;0.73;;;;;;;10.84;73.32;95378.59;4946434;29;20055;-79
2022/01/04 03:14:39;;;;;;;3.70;1.30;;;;;;;10.84;73.91;95368.16;4945041;29;20047;-80
2022/01/04 03:17:07;;;;;;;3.72;1.95;;;;;;;10.80;73.80;95364.38;4944356;29;20498;-79
2022/01/04 03:19:35;;;;;;;4.18;1.70;;;;;;;10.75;73.77;95359.00;4944407;29;20056;-79
2022/01/04 03:22:03;;;;;;;1.45;1.27;;;;;;;10.67;74.32;95345.22;4944397;29;20051;-80
2022/01/04 03:24:31;;;;;;;3.50;1.92;;;;;;;10.61;75.10;95356.50;4944291;29;20051;-79
2022/01/04 03:26:59;;;;;;;2.10;1.00;;;;;;;10.57;75.01;95351.94;4944041;29;20055;-77
2022/01/04 03:29:28;;;;;;;2.55;1.00;;;;;;;10.48;74.73;95338.34;4943877;29;20056;-78
2022/01/04 03:31:57;;;;;;;0.90;0.85;;;;;;;10.42;74.95;95334.78;4944034;29;20051;-79
2022/01/04 03:34:26;;;;;;;3.67;1.20;;;;;;;10.39;75.44;95344.84;4943473;29;20055;-77
2022/01/04 03:36:53;;;;;;;0.70;0.70;;;;;;;10.35;75.73;95334.03;4943345;29;20058;-78
2022/01/04 03:39:21;;;;;;;2.45;0.88;;;;;;;10.29;75.50;95325.22;4943541;29;20063;-78
2022/01/04 03:41:50;;;;;;;2.92;0.90;;;;;;;10.23;75.43;95325.25;4941551;29;20086;-77
2022/01/04 03:44:20;;;;;;;0.88;0.60;;;;;;;10.19;75.66;95322.28;4940984;29;20422;-80
2022/01/04 03:46:51;;;;;;;3.17;1.33;;;;;;;10.16;75.92;95325.28;4940480;29;20528;-79
2022/01/04 03:49:19;;;;;;;1.58;0.75;;;;;;;10.13;76.17;95320.50;4939611;29;20103;-78
2022/01/04 03:51:46;;;;;;;1.45;0.90;;;;;;;10.12;76.69;95311.06;4940440;29;20051;-78
2022/01/04 03:54:14;;;;;;;0.93;0.75;;;;;;;10.10;76.21;95306.09;4941465;29;20510;-78
2022/01/04 03:56:42;;;;;;;2.83;1.00;;;;;;;10.11;76.62;95306.88;4942184;29;20058;-78
2022/01/04 03:59:10;;;;;;;2.00;0.70;;;;;;;10.09;75.99;95306.31;4942709;29;20063;-78
2022/01/04 04:01:37;;;;;;;1.40;1.00;;;;;;;10.06;77.18;95296.31;4941999;29;20059;-78
2022/01/04 04:04:07;;;;;;;1.38;0.90;;;;;;;10.07;77.83;95295.28;4942021;29;20050;-80
2022/01/04 04:06:34;;;;;;;1.05;0.68;;;;;;;10.06;77.11;95283.28;4941444;29;20043;-79
2022/01/04 04:09:02;;;;;;;0.70;0.70;;;;;;;10.06;76.79;95288.50;4943189;29;20055;-80
2022/01/04 04:11:29;;;;;;;2.50;0.88;;;;;;;10.03;77.17;95273.25;4940462;29;20067;-78
2022/01/04 04:13:57;;;;;;;1.55;0.82;;;;;;;10.00;77.43;95279.69;4940069;29;20145;-77
2022/01/04 04:16:24;;;;;;;1.33;0.70;;;;;;;10.00;77.79;95268.50;4939618;29;20052;-77
2022/01/04 04:18:52;;;;;;;1.65;1.02;;;;;;;9.99;77.05;95269.47;4940023;29;20043;-78
2022/01/04 04:21:21;;;;;;;2.25;0.80;;;;;;;9.99;77.53;95267.69;4940205;29;20056;-77
2022/01/04 04:23:48;;;;;;;1.30;0.80;;;;;;;9.99;77.74;95251.25;4940848;29;20050;-79
2022/01/04 04:26:16;;;;;;;1.08;0.70;;;;;;;9.96;77.17;95256.88;4940407;29;20429;-78
2022/01/04 04:28:43;;;;;;;1.98;0.90;;;;;;;9.93;77.31;95246.88;4941963;29;20055;-78
2022/01/04 04:31:11;;;;;;;1.45;1.02;;;;;;;9.93;77.94;95241.66;4941425;29;20059;-78
2022/01/04 04:33:39;;;;;;;1.55;0.95;;;;;;;9.89;77.47;95234.28;4941342;29;20067;-77
2022/01/04 04:36:08;;;;;;;1.38;0.80;;;;;;;9.87;77.76;95228.47;4938902;29;20047;-79
2022/01/04 04:38:37;;;;;;;1.70;0.75;;;;;;;9.85;77.66;95233.09;4939077;29;20044;-78
2022/01/04 04:41:05;;;;;;;2.42;1.15;;;;;;;9.85;78.28;95225.28;4939475;29;20055;-80
2022/01/04 04:43:32;;;;;;;1.80;0.80;;;;;;;9.82;78.27;95228.31;4942250;29;20048;-78
2022/01/04 04:46:00;;;;;;;2.90;1.20;;;;;;;9.80;78.34;95219.94;4938970;29;20051;-80
2022/01/04 04:48:27;;;;;;;2.03;1.23;;;;;;;9.79;78.22;95215.72;4939789;29;20139;-78
2022/01/04 04:50:55;;;;;;;1.23;1.13;;;;;;;9.79;78.06;95215.72;4939812;29;20051;-78
2022/01/04 04:53:22;;;;;;;2.10;1.40;;;;;;;9.77;78.41;95207.31;4939290;29;20051;-77
2022/01/04 04:55:51;;;;;;;1.90;0.90;;;;;;;9.75;77.58;95195.50;4938755;29;20450;-75
2022/01/04 04:58:19;;;;;;;1.10;1.00;;;;;;;9.70;77.58;95196.16;4939041;29;20052;-78
2022/01/04 05:00:46;;;;;;;2.22;1.20;;;;;;;9.65;77.84;95194.19;4938389;29;20051;-78
2022/01/04 05:03:14;;;;;;;2.47;1.42;;;;;;;9.65;78.45;95194.19;4938898;29;20514;-78
2022/01/04 05:05:42;;;;;;;2.15;1.00;;;;;;;9.64;78.48;95192.59;4938880;29;20048;-79
2022/01/04 05:08:10;;;;;;;1.90;0.93;;;;;;;9.61;78.33;95194.81;4939708;29;20501;-78
2022/01/04 05:10:37;;;;;;;1.25;1.00;;;;;;;9.56;77.94;95194.66;4938435;29;20048;-77
2022/01/04 05:13:06;;;;;;;2.42;1.00;;;;;;;9.56;78.45;95189.44;4937674;29;20066;-77
2022/01/04 05:15:33;;;;;;;3.28;1.50;;;;;;;9.57;78.18;95180.63;4938142;29;20522;-79
2022/01/04 05:18:01;;;;;;;2.67;1.35;;;;;;;9.58;78.11;95179.63;4937491;29;20052;-79
2022/01/04 05:20:28;;;;;;;1.17;1.00;;;;;;;9.58;77.84;95177.81;4938428;29;20426;-82
2022/01/04 05:22:57;;;;;;;2.00;1.20;;;;;;;9.58;77.79;95171.81;4938639;29;20509;-79
2022/01/04 05:25:24;;;;;;;1.20;0.90;;;;;;;9.61;78.21;95171.38;4938569;29;20059;-79
2022/01/04 05:27:52;;;;;;;1.75;0.98;;;;;;;9.64;78.17;95165.72;4938160;29;20071;-79
2022/01/04 05:30:21;;;;;;;1.25;0.90;;;;;;;9.66;78.28;95163.72;4939407;29;20059;-78
2022/01/04 05:32:49;;;;;;;0.98;0.88;;;;;;;9.68;78.08;95161.72;4939880;29;20055;-79
2022/01/04 05:35:16;;;;;;;5.03;1.05;;;;;;;9.67;77.99;95157.53;4939843;29;20051;-79
2022/01/04 05:37:44;;;;;;;2.30;1.27;;;;;;;9.68;78.94;95143.47;4939895;29;20057;-79
2022/01/04 05:40:12;;;;;;;1.75;1.40;;;;;;;9.69;79.12;95147.69;4939849;29;20058;-79
2022/01/04 05:42:39;;;;;;;1.77;0.82;;;;;;;9.69;78.61;95142.50;4940361;29;20458;-78
2022/01/04 05:45:08;;;;;;;2.08;1.10;;;;;;;9.68;78.24;95143.47;4939808;29;20051;-79
2022/01/04 05:47:37;;;;;;;1.17;0.85;;;;;;;9.64;77.87;95134.50;4939823;29;20051;-78
2022/01/04 05:50:06;;;;;;;3.03;1.20;;;;;;;9.62;77.85;95134.72;4920731;29;20060;-79
2022/01/04 05:52:34;;;;;;;4.10;2.30;;;;;;;9.62;78.06;95141.72;4921012;29;20051;-77
2022/01/04 05:55:02;;;;;;;5.07;3.85;;;;;;;9.62;78.17;95137.34;4922277;29;20056;-78
2022/01/04 05:57:30;;;;;;;1.60;0.90;;;;;;;9.64;78.39;95124.09;4935789;29;20060;-81
2022/01/04 05:59:57;;;;;;;1.60;1.45;;;;;;;9.65;78.57;95125.69;4936737;29;20052;-79
2022/01/04 06:02:25;;;;;;;1.67;1.27;;;;;;;9.68;79.28;95120.06;4950094;29;20059;-80
2022/01/04 06:04:54;;;;;;;1.63;1.30;;;;;;;9.69;78.74;95117.25;4939827;29;20047;-81
2022/01/04 06:07:21;;;;;;;1.85;1.02;;;;;;;9.70;78.78;95113.63;4940907;29;20059;-80
2022/01/04 06:09:52;;;;;;;2.60;0.90;;;;;;;9.70;79.17;95113.63;4941813;29;20051;-79
2022/01/04 06:15:07;;;;;;;2.00;0.80;;;;;;;9.68;78.89;95096.63;4955537;29;20052;-79
2022/01/04 06:17:37;;;;;;;2.45;1.40;;;;;;;9.66;79.41;95075.19;4948126;29;20051;-78
2022/01/04 06:20:08;;;;;;;1.38;1.00;;;;;;;9.64;78.58;95065.03;4937993;29;20545;-78
2022/01/04 06:22:37;;;;;;;2.75;0.88;;;;;;;9.63;78.74;95065.22;4937985;29;20047;-81
2022/01/04 06:25:07;;;;;;;1.65;1.00;;;;;;;9.62;78.88;95058.41;4940270;29;20055;-78
2022/01/04 06:27:35;;;;;;;1.30;0.80;;;;;;;9.63;79.12;95050.41;4938601;29;20098;-78
2022/01/04 06:30:03;;;;;;;1.15;0.85;;;;;;;9.63;79.01;95050.41;4942574;29;20052;-78
2022/01/04 06:32:31;;;;;;;1.13;0.93;;;;;;;9.66;79.30;95038.75;4941842;29;20062;-77
2022/01/04 06:34:59;;;;;;;3.95;1.27;;;;;;;9.71;79.56;95036.31;4940589;29;20062;-78
2022/01/04 06:37:28;;;;;;;1.60;0.95;;;;;;;9.74;79.76;95032.50;4942897;29;20047;-81
2022/01/04 06:39:55;;;;;;;2.60;1.05;;;;;;;9.76;79.67;95033.84;4942961;29;20055;-78
2022/01/04 06:42:23;;;;;;;1.55;0.82;;;;;;;9.77;79.19;95026.84;4942368;29;20039;-77
2022/01/04 06:44:50;;;;;;;2.60;1.10;;;;;;;9.76;79.04;95022.66;4942919;29;20057;-78
2022/01/04 06:47:18;;;;;;;2.28;1.30;;;;;;;9.75;79.32;95021.03;4943081;29;20415;-79
2022/01/04 06:49:45;;;;;;;1.20;1.00;;;;;;;9.74;79.11;95012.44;4942647;29;20055;-78
2022/01/04 06:52:13;;;;;;;1.98;1.30;;;;;;;9.73;79.29;95000.44;4943388;29;20553;-76
2022/01/04 06:54:42;;;;;;;1.58;0.82;;;;;;;9.70;79.15;94996.44;4942952;29;20051;-80
2022/01/04 06:57:14;;;;;;;2.33;1.10;;;;;;;9.70;79.58;94982.63;4943353;29;20052;-80
2022/01/04 06:59:41;;;;;;;0.73;0.73;;;;;;;9.68;79.87;94988.06;4945298;29;20054;-80
2022/01/04 07:02:10;;;;;;;3.45;1.20;;;;;;;9.67;79.78;94980.47;4926217;29;20060;-80
2022/01/04 07:04:37;;;;;;;1.58;0.90;;;;;;;9.68;79.76;94989.88;4926167;29;20486;-79
2022/01/04 07:07:05;;;;;;;4.13;1.17;;;;;;;9.68;79.71;94989.88;4925541;29;20418;-83
2022/01/04 07:09:32;;;;;;;2.15;0.93;;;;;;;9.70;80.30;94987.84;4925720;29;20059;-84
2022/01/04 07:12:02;;;;;;;1.80;0.75;;;;;;;9.74;80.43;94994.22;4928216;29;20056;-85
2022/01/04 07:14:29;;;;;;;1.88;0.77;;;;;;;9.78;80.20;94989.38;4936408;29;20047;-83
2022/01/04 07:16:57;;;;;;;1.55;0.82;;;;;;;9.81;80.53;94991.53;4944714;29;20047;-88
2022/01/04 07:19:31;;;;;;;1.48;0.82;;;;;;;9.81;80.20;94989.72;4950799;29;20059;-89
2022/01/04 07:22:00;;;;;;;1.58;0.75;;;;;;;9.83;80.16;94981.72;4948807;29;20113;-90
2022/01/04 07:24:34;;;;;;;1.30;1.00;;;;;;;9.86;80.51;94987.28;4945576;29;20506;-86
2022/01/04 07:27:04;;;;;;;1.35;0.77;;;;;;;9.89;80.52;94976.44;4940332;29;20474;-80
2022/01/04 07:29:32;;;;;;;1.10;0.75;;;;;;;9.93;80.14;94975.97;4947761;29;20048;-82
2022/01/04 07:32:00;;;;;;;1.50;0.90;;;;;;;9.96;80.33;94967.75;4948829;29;20067;-85
2022/01/04 07:34:40;;;;;;;2.15;0.70;;;;;;;9.99;80.52;94975.94;4941309;29;20052;-80
2022/01/04 07:37:07;;;;;;;3.88;2.05;;;;;;;10.01;80.20;94966.06;4925042;29;20599;-79
2022/01/04 07:39:35;;;;;;;2.97;1.63;;;;;;;10.02;79.99;94969.50;4939399;29;20056;-79
2022/01/04 07:42:05;;;;;;;4.15;1.10;;;;;;;10.02;80.09;94959.06;4943019;29;20051;-84
2022/01/04 07:44:33;;;;;;;2.55;1.30;;;;;;;10.01;80.53;94960.06;4944609;29;20060;-84
2022/01/04 07:47:01;;;;;;;0.68;0.60;;;;;;;10.03;80.15;94955.44;4944472;29;20055;-83
2022/01/04 07:49:28;;;;;;;0.50;0.50;;;;;;;10.02;80.02;94953.88;4943629;29;20071;-79
2022/01/04 07:51:57;;;;;;;1.05;0.40;;;;;;;10.03;80.26;94947.63;4944318;29;20391;-79
2022/01/04 07:54:24;;;;;;;1.38;0.77;;;;;;;10.07;80.95;94946.19;4948795;29;20062;-84
2022/01/04 07:56:53;;;;;;;0.60;0.60;;;;;;;10.08;80.67;94945.97;4949182;29;20048;-82
2022/01/04 07:59:23;;;;;;;0.80;0.80;;;;;;;10.10;80.63;94940.53;4946515;29;20502;-83
2022/01/04 08:01:51;;;;;;;2.10;0.73;;;;;;;10.11;80.57;94934.31;4944788;29;20055;-82
2022/01/04 08:04:18;;;;;;;0.93;0.60;;;;;;;10.14;80.82;94926.03;4945136;29;20051;-80
2022/01/04 08:06:46;;;;;;;1.33;0.60;;;;;;;10.15;80.65;94927.66;4946045;29;20070;-84
2022/01/04 08:09:14;;;;;;;0.93;0.70;;;;;;;10.16;80.89;94924.00;4945866;29;20055;-84
2022/01/04 08:11:42;;;;;;;1.40;1.10;;;;;;;10.17;80.97;94925.63;4947117;29;20142;-79
2022/01/04 08:14:10;;;;;;;1.45;0.80;;;;;;;10.19;80.85;94920.16;4945850;29;20062;-89
2022/01/04 08:16:39;;;;;;;0.80;0.77;;;;;;;10.20;80.90;94913.97;4945082;29;20059;-84
2022/01/04 08:19:09;;;;;;;0.95;0.85;;;;;;;10.22;81.07;94919.75;4941484;29;20080;-79
2022/01/04 08:21:36;;;;;;;1.50;1.10;;;;;;;10.19;80.88;94915.78;4942082;29;20065;-79
2022/01/04 08:24:04;;;;;;;0.80;0.80;;;;;;;10.19;81.32;94918.38;4941150;29;20506;-79
2022/01/04 08:26:32;;;;;;;2.53;1.30;;;;;;;10.21;81.17;94899.91;4940654;29;20086;-78
2022/01/04 08:29:00;;;;;;;2.53;1.33;;;;;;;10.21;81.19;94900.72;4941297;29;20048;-79
2022/01/04 08:31:27;;;;;;;1.63;1.40;;;;;;;10.21;81.40;94887.69;4941406;29;20437;-81
2022/01/04 08:33:56;;;;;;;2.03;1.30;;;;;;;10.20;81.53;94883.47;4942788;29;20048;-81
2022/01/04 08:36:27;;;;;;;1.35;1.25;;;;;;;10.19;81.56;94876.69;4942193;29;20051;-79
2022/01/04 08:38:54;;;;;;;2.40;1.20;;;;;;;10.18;81.52;94874.31;4942227;29;20058;-79
2022/01/04 08:41:22;;;;;;;1.77;1.40;;;;;;;10.19;81.71;94881.09;4942111;29;20056;-79
2022/01/04 08:43:50;;;;;;;2.42;1.65;;;;;;;10.19;82.00;94886.28;4939234;29;20055;-79
2022/01/04 08:46:17;;;;;;;1.17;1.08;;;;;;;10.20;81.71;94895.72;4939512;29;20048;-79
2022/01/04 08:48:45;;;;;;;1.27;1.17;;;;;;;10.18;81.56;94890.72;4942574;29;20054;-79
2022/01/04 08:51:14;;;;;;;1.50;1.30;;;;;;;10.22;81.92;94878.06;4943845;29;20060;-80
2022/01/04 08:53:41;;;;;;;4.43;1.63;;;;;;;10.24;82.00;94883.84;4946895;29;20047;-80
2022/01/04 08:56:09;;;;;;;2.53;0.80;;;;;;;10.26;81.87;94876.59;4947649;29;20059;-79
2022/01/04 08:58:36;;;;;;;0.98;0.68;;;;;;;10.27;81.84;94884.16;4948969;29;20055;-82
2022/01/04 09:01:04;;;;;;;0.80;0.75;;;;;;;10.30;82.05;94881.19;4950190;29;20060;-81
2022/01/04 09:03:33;;;;;;;3.47;0.98;;;;;;;10.35;82.21;94869.28;4949747;29;20055;-80
2022/01/04 09:06:01;;;;;;;1.65;0.60;;;;;;;10.40;82.19;94882.44;4947439;29;20052;-80
2022/01/04 09:08:30;;;;;;;1.92;0.70;;;;;;;10.43;82.27;94871.56;4945807;29;20051;-79
2022/01/04 09:10:57;;;;;;;1.63;0.90;;;;;;;10.47;82.10;94877.91;4947596;29;20055;-78
2022/01/04 09:13:31;;;;;;;0.73;0.50;;;;;;;10.51;81.97;94873.84;4947763;29;20051;-79
2022/01/04 09:18:46;;;;;;;1.90;0.68;;;;;;;10.59;82.36;94864.94;4943220;29;20056;-80
2022/01/04 09:21:34;;;;;;;1.85;1.08;;;;;;;10.60;82.07;94872.50;4941566;29;20075;-79
2022/01/04 09:24:05;;;;;;;1.23;1.13;;;;;;;10.61;82.26;94866.28;4940979;29;20466;-78
2022/01/04 09:26:33;;;;;;;2.40;1.05;;;;;;;10.61;82.09;94868.09;4940670;29;20050;-80
2022/01/04 09:29:00;;;;;;;1.67;1.35;;;;;;;10.59;81.93;94863.09;4941816;29;20051;-80
2022/01/04 09:31:29;;;;;;;2.65;2.00;;;;;;;10.59;82.08;94865.72;4941210;29;20047;-80
2022/01/04 09:33:59;;;;;;;1.80;1.70;;;;;;;10.58;82.01;94853.69;4942106;29;20110;-78
2022/01/04 09:36:29;;;;;;;1.08;1.00;;;;;;;10.59;82.17;94847.47;4940405;29;20048;-78
2022/01/04 09:38:57;;;;;;;1.23;1.13;;;;;;;10.59;81.94;94870.94;4940684;29;20054;-78
2022/01/04 09:41:26;;;;;;;3.40;1.40;;;;;;;10.58;82.03;94864.13;4940834;29;20048;-78
2022/01/04 09:43:54;;;;;;;1.05;1.00;;;;;;;10.57;81.96;94867.75;4941308;29;20051;-78
2022/01/04 09:46:22;;;;;;;4.82;1.58;;;;;;;10.57;82.19;94862.53;4940291;29;20426;-78
2022/01/04 09:48:50;;;;;;;3.20;1.20;;;;;;;10.59;82.27;94852.69;4940900;29;20086;-79
2022/01/04 09:51:18;;;;;;;1.38;1.27;;;;;;;10.61;81.78;94862.91;4941087;29;20055;-78
2022/01/04 09:53:46;;;;;;;2.38;1.13;;;;;;;10.64;81.99;94849.41;4940347;29;20063;-78
2022/01/04 09:56:14;;;;;;;1.35;1.17;;;;;;;10.68;82.13;94856.53;4940462;29;20147;-78
2022/01/04 09:58:43;;;;;;;2.72;1.30;;;;;;;10.73;82.54;94850.66;4941297;29;20124;-78
2022/01/04 10:01:18;;;;;;;2.25;1.00;;;;;;;10.78;81.93;94836.94;4941433;29;20058;-78
2022/01/04 10:04:07;;;;;;;1.65;1.48;;;;;;;10.81;81.94;94836.50;4941625;29;20060;-78
2022/01/04 10:06:37;;;;;;;1.20;1.10;;;;;;;10.84;82.12;94839.44;4944145;29;20052;-78
2022/01/04 10:09:08;;;;;;;1.42;1.33;;;;;;;10.88;81.95;94821.53;4942860;29;20055;-78
2022/01/04 10:11:38;;;;;;;3.35;1.83;;;;;;;10.90;82.16;94816.88;4942150;29;20056;-78
2022/01/04 10:14:25;;;;;;;2.70;1.13;;;;;;;10.93;82.52;94819.00;4942826;29;20058;-79
2022/01/04 10:16:54;;;;;;;0.88;0.75;;;;;;;10.97;82.28;94817.53;4942105;29;20051;-79
2022/01/04 10:19:29;;;;;;;1.73;1.15;;;;;;;11.02;82.03;94807.22;4941836;29;20058;-80
2022/01/04 10:22:20;;;;;;;0.80;0.70;;;;;;;11.06;82.68;94803.16;4942798;29;20498;-79
2022/01/04 10:24:49;;;;;;;1.65;0.70;;;;;;;11.09;82.02;94802.69;4938187;29;20458;-80
2022/01/04 10:27:29;;;;;;;1.40;0.60;;;;;;;11.13;82.10;94809.03;4943211;29;20070;-78
2022/01/04 10:30:10;;;;;;;1.92;0.73;;;;;;;11.17;81.69;94798.13;4944692;29;20074;-78
2022/01/04 10:32:50;;;;;;;2.33;0.82;;;;;;;11.19;81.85;94788.25;4943981;29;20391;-79
2022/01/04 10:35:26;;;;;;;1.70;0.80;;;;;;;11.21;81.75;94773.16;4944006;29;20052;-80
2022/01/04 10:37:54;;;;;;;0.75;0.60;;;;;;;11.24;81.45;94809.22;4943050;29;20044;-78
2022/01/04 10:40:23;;;;;;;1.45;0.80;;;;;;;11.28;81.34;94805.13;4943676;29;20043;-78
2022/01/04 10:42:50;;;;;;;0.95;0.93;;;;;;;11.32;81.15;94795.84;4944326;29;20055;-78
2022/01/04 10:45:29;;;;;;;2.33;0.73;;;;;;;11.34;80.73;94791.19;4944158;29;20056;-78
2022/01/04 10:48:10;;;;;;;0.80;0.60;;;;;;;11.37;80.58;94798.56;4942013;29;20050;-78
2022/01/04 10:50:39;;;;;;;2.88;0.80;;;;;;;11.39;80.31;94801.75;4943517;29;20446;-80
2022/01/04 10:53:15;;;;;;;0.82;0.57;;;;;;;11.44;80.26;94772.31;4942558;29;20063;-78
2022/01/04 10:55:44;;;;;;;3.20;1.13;;;;;;;11.49;79.79;94780.25;4941582;29;20059;-80
2022/01/04 10:58:22;;;;;;;1.98;1.00;;;;;;;11.55;79.16;94777.50;4943120;29;20043;-78
2022/01/04 11:00:53;;;;;;;1.65;0.85;;;;;;;11.61;79.13;94782.81;4942648;29;20055;-79
2022/01/04 11:03:29;;;;;;;0.82;0.80;;;;;;;11.65;79.19;94783.94;4942005;29;20056;-78
2022/01/04 11:06:04;;;;;;;1.98;1.10;;;;;;;11.67;78.91;94766.22;4942171;29;20518;-77
2022/01/04 11:08:32;;;;;;;2.15;0.82;;;;;;;11.70;78.57;94760.53;4942852;29;20059;-78
2022/01/04 11:11:00;;;;;;;1.17;1.00;;;;;;;11.71;78.83;94742.00;4942637;29;20067;-79
2022/01/04 11:13:28;;;;;;;1.52;1.30;;;;;;;11.74;78.25;94732.91;4943678;29;20056;-77
2022/01/04 11:16:00;;;;;;;2.25;0.88;;;;;;;11.76;78.62;94738.69;4944957;29;20450;-79
2022/01/04 11:18:30;;;;;;;2.67;1.15;;;;;;;11.78;78.89;94734.03;4944159;29;20043;-80
2022/01/04 11:20:58;;;;;;;2.67;1.30;;;;;;;11.81;78.53;94727.56;4942159;29;20048;-77
2022/01/04 11:23:29;;;;;;;1.25;1.08;;;;;;;11.83;78.45;94725.47;4942378;29;20058;-77
2022/01/04 11:25:58;;;;;;;1.33;0.93;;;;;;;11.85;78.01;94732.06;4940661;29;20047;-78
2022/01/04 11:28:27;;;;;;;2.90;1.15;;;;;;;11.88;78.16;94726.41;4940429;29;20458;-77
2022/01/04 11:31:09;;;;;;;1.58;1.10;;;;;;;11.91;77.59;94731.13;4941872;29;20501;-79
2022/01/04 11:33:47;;;;;;;2.38;1.20;;;;;;;11.93;77.73;94728.31;4941436;29;20062;-77
2022/01/04 11:36:16;;;;;;;2.83;1.20;;;;;;;11.94;78.34;94730.69;4921592;29;20429;-78
2022/01/04 11:38:44;;;;;;;1.23;0.70;;;;;;;11.96;77.66;94727.84;4921018;29;20059;-77
2022/01/04 11:41:22;;;;;;;3.85;1.67;;;;;;;11.95;77.99;94726.25;4930092;29;20066;-79
2022/01/04 11:43:50;;;;;;;1.48;1.20;;;;;;;11.94;78.14;94712.41;4940656;29;20055;-77
2022/01/04 11:46:36;;;;;;;1.23;0.85;;;;;;;11.94;78.10;94725.47;4941089;29;20119;-80
2022/01/04 11:49:10;;;;;;;3.20;0.95;;;;;;;11.93;77.57;94704.78;4940167;29;20044;-78
2022/01/04 11:51:40;;;;;;;2.00;1.05;;;;;;;11.92;78.14;94727.50;4940924;29;20063;-77
2022/01/04 11:54:26;;;;;;;3.00;1.13;;;;;;;11.92;78.58;94727.50;4939658;29;20048;-78